TimeCDT,TemperatureF,Dew PointF,Humidity,Sea Level PressureIn,VisibilityMPH,Wind Direction,Wind SpeedMPH,Gust SpeedMPH,PrecipitationIn,Events,Conditions,WindDirDegrees,DateUTC
12:32 AM,51.8,48.2,88,30.08,4.0,SE,10.4,-,N/A,,Overcast,140,2013-10-30 05:32:00
12:52 AM,53.1,50.0,89,30.08,4.0,SSE,9.2,-,N/A,,Overcast,150,2013-10-30 05:52:00
1:04 AM,53.6,50.0,88,30.07,4.0,SE,10.4,-,N/A,,Overcast,140,2013-10-30 06:04:00
1:07 AM,53.6,50.0,88,30.08,4.0,SSE,8.1,-,N/A,,Overcast,150,2013-10-30 06:07:00
1:52 AM,53.1,50.0,89,30.07,4.0,SE,8.1,-,N/A,,Overcast,140,2013-10-30 06:52:00
2:52 AM,53.1,50.0,89,30.07,3.0,SSE,10.4,-,N/A,,Overcast,150,2013-10-30 07:52:00
3:52 AM,53.1,50.0,89,30.06,3.0,SSE,9.2,-,N/A,,Overcast,150,2013-10-30 08:52:00
4:52 AM,53.1,51.1,93,30.05,3.0,SSE,8.1,-,N/A,,Overcast,150,2013-10-30 09:52:00
5:06 AM,53.6,51.8,94,30.05,2.5,SE,6.9,-,N/A,,Overcast,140,2013-10-30 10:06:00
5:52 AM,53.1,51.1,93,30.05,2.5,ESE,6.9,-,N/A,,Overcast,120,2013-10-30 10:52:00
6:22 AM,53.6,51.8,94,30.03,2.0,ESE,10.4,-,N/A,,Overcast,120,2013-10-30 11:22:00
6:52 AM,53.1,51.1,93,30.04,2.0,SE,9.2,-,N/A,,Overcast,140,2013-10-30 11:52:00
7:13 AM,53.6,51.8,94,30.04,1.8,SSE,8.1,-,N/A,,Overcast,150,2013-10-30 12:13:00
7:49 AM,53.6,51.8,94,30.01,0.8,SE,8.1,-,N/A,,Overcast,130,2013-10-30 12:49:00
7:52 AM,53.1,51.1,93,30.02,0.8,SE,10.4,-,N/A,,Overcast,130,2013-10-30 12:52:00
8:52 AM,53.1,52.0,96,30.05,0.8,SSE,9.2,-,N/A,,Overcast,160,2013-10-30 13:52:00
9:00 AM,53.6,51.8,94,30.04,1.0,SSE,11.5,-,N/A,,Overcast,150,2013-10-30 14:00:00
9:52 AM,54.0,53.1,97,30.04,1.0,SE,10.4,-,N/A,,Overcast,140,2013-10-30 14:52:00
10:52 AM,55.9,54.0,93,29.96,1.2,SE,13.8,-,N/A,,Overcast,130,2013-10-30 15:52:00
11:26 AM,57.2,53.6,88,29.96,2.5,SE,10.4,-,N/A,,Overcast,130,2013-10-30 16:26:00
11:52 AM,55.9,54.0,93,29.96,2.0,East,6.9,-,N/A,,Overcast,100,2013-10-30 16:52:00
12:52 PM,57.0,55.0,93,29.96,1.8,East,9.2,-,N/A,,Overcast,100,2013-10-30 17:52:00
1:38 PM,57.2,55.4,94,29.98,0.8,Calm,Calm,-,0.00,Rain,Light Rain,0,2013-10-30 18:38:00
1:52 PM,57.0,55.0,93,29.99,0.8,East,4.6,-,0.00,Rain,Light Rain,100,2013-10-30 18:52:00
2:13 PM,57.2,55.4,94,29.96,1.0,East,4.6,-,0.02,Rain,Light Rain,90,2013-10-30 19:13:00
2:52 PM,57.0,55.0,93,29.96,1.0,ENE,5.8,-,0.06,Rain,Light Rain,60,2013-10-30 19:52:00
2:59 PM,57.2,55.4,94,29.94,0.8,East,4.6,-,0.01,Rain,Light Rain,80,2013-10-30 19:59:00
3:12 PM,55.4,55.4,100,29.94,1.0,ENE,6.9,-,0.05,Rain,Rain,70,2013-10-30 20:12:00
3:52 PM,55.0,54.0,96,29.92,1.2,ENE,8.1,-,0.13,Rain,Rain,60,2013-10-30 20:52:00
4:52 PM,55.0,54.0,96,29.90,1.2,ESE,10.4,-,0.27,Rain,Rain,110,2013-10-30 21:52:00
5:00 PM,55.4,53.6,94,29.90,1.5,SE,10.4,-,0.04,Rain,Heavy Rain,130,2013-10-30 22:00:00
5:05 PM,55.4,53.6,94,29.90,1.5,ESE,11.5,-,0.06,Rain,Heavy Rain,120,2013-10-30 22:05:00
5:38 PM,55.4,53.6,94,29.88,2.0,ESE,11.5,-,0.19,Rain,Rain,120,2013-10-30 22:38:00
5:49 PM,55.4,55.4,100,29.87,4.0,SE,12.7,-,0.20,Rain,Rain,130,2013-10-30 22:49:00
5:52 PM,55.9,55.0,97,29.87,4.0,ESE,12.7,-,0.21,Rain,Rain,120,2013-10-30 22:52:00
6:06 PM,55.4,55.4,100,29.88,4.0,SE,5.8,-,0.02,Rain,Rain,140,2013-10-30 23:06:00
6:52 PM,55.9,55.0,97,29.85,5.0,ESE,13.8,-,0.11,Rain,Rain,110,2013-10-30 23:52:00
7:52 PM,57.0,55.9,96,29.84,5.0,SE,17.3,-,0.00,,Overcast,130,2013-10-31 00:52:00
8:39 PM,57.2,55.4,94,29.78,6.0,SE,20.7,-,0.01,,Overcast,140,2013-10-31 01:39:00
8:52 PM,59.0,57.0,93,29.81,7.0,SE,32.2,39.1,0.01,Rain,Light Rain,130,2013-10-31 01:52:00
9:00 PM,59.0,57.2,94,29.78,6.0,SE,17.3,34.5,0.00,Rain,Light Rain,130,2013-10-31 02:00:00
9:07 PM,59.0,57.2,94,29.79,6.0,SE,16.1,-,0.00,Rain,Light Rain,130,2013-10-31 02:07:00
9:52 PM,59.0,57.0,93,29.80,5.0,SSE,12.7,-,0.09,Rain,Rain,160,2013-10-31 02:52:00
10:03 PM,59.0,57.2,94,29.78,5.0,SSE,13.8,-,0.01,Rain,Rain,160,2013-10-31 03:03:00
10:52 PM,60.1,57.9,93,29.79,10.0,South,12.7,-,0.09,Rain,Light Rain,170,2013-10-31 03:52:00
11:52 PM,60.1,57.9,93,29.74,7.0,South,16.1,-,0.09,Rain,Light Rain,170,2013-10-31 04:52:00